Milford, Utah Weather observations

Data are for observation ending at time listed.
 Day   Time    Ave.   Ave.  Ave.  Vector   Max.   Stn.    Total    Solar   Ave.  
  of    of     Air    Rel.  Wind   Wind    Wind   Baro.  Precip.   Rad.    Soil  
Year   Day     Temp.  Hum.  Speed  Dir.    Gust   Pres.                    Temp. 
2015   (MST)    F      %     mph   deg.    mph     mb.     in.     W/m2     F   
------------------------------------------------------------------------------
 207   18:20   86.1     8    3.3   216      8.3   845.9    0.00      19    74.5
 207   18:30   85.9     8    3.1   209      7.6   845.9    0.00      19    74.6
 207   18:40   85.5     8    3.0   208      7.7   845.9    0.00      16    74.6
 207   18:50   85.0     8    3.2   204      7.2   845.9    0.00      15    99999.0
 207   19:00   84.6     9    2.7   198      6.8   845.9    0.00      14    74.8
 207   19:10   84.1     9    2.9   204      7.2   845.8    0.00      12    74.8
 207   19:20   83.3    10    2.3   205      5.4   845.8    0.00      11    74.9
 207   19:30   82.6    10    2.4   204      6.1   845.7    0.00       9    74.9
 207   19:40   81.7    11    1.4   218      4.3   845.6    0.00       6    75.0
 207   19:50   80.7    11    1.7   203      4.9   845.5    0.00       5    75.1
 207   20:00   79.2    12    1.0   209      2.9   845.4    0.00       1    75.1
 207   20:10   77.6    13    0.2   219      1.3   845.3    0.00       0    75.2
 207   20:20   76.4    13    0.7   218      1.8   845.2    0.00       0    75.2
 207   20:30   75.3    14    0.8   180      2.6   845.1    0.00       0    75.3
 207   20:40   73.3    16    2.3   168      5.3   845.0    0.00       0    75.3
 207   20:50   69.7    24    1.7   180      4.6   845.0    0.00       0    75.4
 207   21:00   68.1    26    1.7   206      4.0   845.0    0.00       0    75.5
 207   21:10   68.1    24    1.3   210      3.7   844.9    0.00       0    75.5
 207   21:20   68.9    22    0.9   210      2.6   844.8    0.00       0    99999.0
 207   21:30   68.9    23    0.8   213      2.0   844.6    0.00       0    99999.0
 207   21:40   67.8    25    1.0   193      3.7   844.6    0.00       0    75.5
 207   21:50   67.4    25    1.4   193      4.1   844.6    0.00       0    75.6
 207   22:00   67.4    25    1.5   201      5.4   844.5    0.00       0    75.5
 207   22:10   68.7    22    1.9   222      4.3   844.4    0.00       0    75.6
 207   22:20   68.9    23    2.5   242      4.7   844.4    0.00       0    75.6
 207   22:30   67.1    25    2.0   211      4.3   844.4    0.00       0    75.6
 207   22:40   67.2    24    2.1   205      5.0   844.4    0.00       0    75.7
 207   22:50   67.6    23    2.1   212      6.4   844.3    0.00       0    75.6
 207   23:00   68.1    22    2.0   207      4.8   844.2    0.00       0    99999.0
 207   23:10   68.9    21    2.1   225      6.1   844.2    0.00       0    75.7
 207   23:20   68.4    22    2.1   227      5.4   844.2    0.00       0    99999.0
 207   23:30   68.7    21    2.4   218      6.0   844.2    0.00       0    75.8
 207   23:40   69.6    20    2.4   220      6.8   844.2    0.00       0    75.7
 207   23:50   68.3    21    2.3   208      4.5   844.3    0.00       0    99999.0
 208    0:00   67.7    21    1.9   210      4.2   844.3    0.00       0    75.7
 208    0:10   67.5    21    1.4   238      3.0   844.2    0.00       0    75.7
 208    0:20   67.4    21    1.8   224      4.2   844.2    0.00       0    75.7
 208    0:30   66.7    22    1.8   209      4.2   844.1    0.00       0    99999.0
 208    0:40   65.7    23    1.6   227      3.8   844.1    0.00       0    99999.0
 208    0:50   64.4    25    1.5   216      3.9   844.1    0.00       0    99999.0
 208    1:00   62.7    28    1.6   214      3.9   844.0    0.00       0    99999.0
 208    1:10   62.0    28    1.2   214      3.4   843.8    0.00       0    99999.0
 208    1:20   61.5    29    1.3   209      3.3   843.7    0.00       0    99999.0
 208    1:30   60.6    30    1.6   211      3.7   843.7    0.00       0    99999.0
 208    1:40   59.9    31    1.6   210      3.1   843.6    0.00       0    75.5
 208    1:50   59.3    33    1.6   228      3.9   843.4    0.00       0    99999.0
 208    2:00   60.5    30    2.3   239      4.7   843.2    0.00       0    99999.0
 208    2:10   62.6    26    1.7   242      3.7   843.2    0.00       0    99999.0
 208    2:20   63.4    25    2.7   250      5.0   843.2    0.00       0    99999.0
 208    2:30   62.2    26    3.0   258      5.9   843.2    0.00       0    99999.0
 208    2:40   62.8    25    2.4   249      4.1   843.2    0.00       0    75.3
 208    2:50   64.0    24    2.1   253      4.5   843.2    0.00       0    99999.0
 208    3:00   64.5    23    1.5   244      3.9   843.2    0.00       0    99999.0
 208    3:10   64.8    23    1.9   240      4.3   843.2    0.00       0    75.2
 208    3:20   64.8    24    1.8   236      4.5   843.1    0.00       0    99999.0
 208    3:30   64.7    24    2.2   243      4.7   843.1    0.00       0    75.1
 208    3:40   64.2    25    2.0   241      4.7   843.1    0.00       0    75.1
 208    3:50   63.2    25    2.0   239      4.9   842.9    0.00       0    75.0
 208    4:00   61.6    26    2.7   239      5.7   842.8    0.00       0    75.0
 208    4:10   60.8    27    2.8   232      6.2   842.7    0.00       0    75.0
 208    4:20   59.3    29    2.4   232      5.6   842.6    0.00       0    75.0
 208    4:30   59.4    31    2.6   214      5.0   842.5    0.00       0    74.9
 208    4:40   60.7    28    2.5   238      4.2   842.5    0.00       0    74.9
 208    4:50   61.0    26    2.6   224      7.2   842.3    0.01       0    74.9
 208    5:00   61.7    25    3.6   201      8.1   842.3    0.00       0    74.8
 208    5:10   61.6    25    3.8   192      6.1   842.2    0.00       0    74.8
 208    5:20   61.3    26    3.9   190      7.3   842.2    0.00       0    74.8
 208    5:30   62.4    25    4.8   186      9.1   842.4    0.00       0    74.7
 208    5:40   63.4    24    4.5   187      7.8   842.6    0.00       6    99999.0
 208    5:50   63.1    24    3.9   192      6.4   842.8    0.00       7    99999.0
 208    6:00   63.3    24    4.2   190      7.4   842.9    0.00      36    99999.0
 208    6:10   64.3    24    3.6   195      8.0   843.1    0.00      60    99999.0
 208    6:20   65.8    22    3.4   192      6.0   843.4    0.00      92    99999.0
 208    6:30   66.3    24    3.4   191      6.4   843.6    0.00     122    74.3
 208    6:40   66.0    27    3.4   192      6.6   843.8    0.00     148    74.3
 208    6:50   66.5    27    3.1   194      5.5   843.9    0.00     176    74.2
 208    7:00   67.3    26    3.7   183      6.0   844.2    0.00     204    99999.0
 208    7:10   67.9    27    3.3   182      6.4   844.4    0.00     232    74.1
 208    7:20   68.8    24    3.8   183      6.7   844.6    0.00     259    74.0
 208    7:30   69.8    24    4.0   180      7.5   844.8    0.00     287    74.0
 208    7:40   70.0    24    4.2   180      8.1   845.0    0.00     314    73.9
 208    7:50   70.2    25    5.4   172     10.4   845.2    0.00     343    73.9
 208    8:00   70.8    24    5.6   178     11.3   845.2    0.00     371    73.9
 208    8:10   72.1    23    5.1   178     10.1   845.1    0.00     398    73.8
 208    8:20   73.7    22    5.8   180     11.1   845.1    0.00     428    73.9
 208    8:30   75.2    21    6.2   181     14.6   845.3    0.00     455    99999.0
 208    8:40   76.4    19    5.7   186     14.8   845.7    0.00     480    73.4
 208    8:50   76.6    19    5.7   188     12.5   845.9    0.00     508    73.3
 208    9:00   77.1    19    5.3   192     11.6   846.0    0.00     535    73.3
 208    9:10   77.5    19    5.7   188     10.7   846.2    0.00     560    73.1
 208    9:20   77.9    18    7.4   181     15.5   846.5    0.00     584    99999.0
 208    9:30   77.9    19    8.3   181     19.3   846.7    0.00     609    99999.0
 208    9:40   78.3    18    8.4   182     18.0   846.5    0.00     633    99999.0
 208    9:50   78.7    18    7.9   181     16.7   846.6    0.00     654    99999.0
 208   10:00   79.2    18    8.2   177     17.5   846.9    0.00     675    72.8
 208   10:10   79.8    18    8.1   178     17.4   847.2    0.00     695    72.8
 208   10:20   80.1    17    7.6   184     15.3   847.4    0.00     713    72.7
 208   10:30   81.0    17    7.2   183     16.7   847.6    0.00     734    72.7
 208   10:40   81.3    17    7.9   175     15.5   847.7    0.00     749    72.7
 208   10:50   81.1    17    9.0   175     20.2   847.8    0.00     764    99999.0
 208   11:00   81.6    17    6.6   182     14.2   847.8    0.00     780    99999.0
 208   11:10   81.7    16    7.3   178     15.1   847.7    0.00     795    99999.0
 208   11:20   82.7    16    6.2   185     15.0   847.7    0.00     808    99999.0
 208   11:30   82.8    15    7.6   186     15.4   847.5    0.00     818    99999.0
 208   11:40   83.4    15    6.5   177     13.5   847.4    0.00     827    99999.0
 208   11:50   84.2    15    5.1   182     12.5   847.5    0.00     838    72.6
 208   12:00   84.7    15    5.7   174     14.8   847.4    0.00     846    72.5
 208   12:10   84.4    15    6.2   180     14.2   847.5    0.00     843    72.5
 208   12:20   84.9    14    5.1   186     14.4   847.6    0.00     845    72.5
 208   12:30   84.9    14    6.4   173     14.4   847.5    0.00     845    72.5
 208   12:40   85.0    14    7.1   172     17.0   847.5    0.00     844    72.4
 208   12:50   86.0    14    4.8   181     16.4   847.5    0.00     849    72.5
 208   13:00   85.4    14    5.8   175     14.0   847.6    0.00     847    99999.0
 208   13:10   86.3    14    6.8   178     17.2   847.5    0.00     847    99999.0
 208   13:20   85.9    13    8.1   171     19.1   847.5    0.00     839    72.5
 208   13:30   86.8    13    6.0   180     14.5   847.6    0.00     836    72.5
 208   13:40   86.1    13    7.2   172     15.1   847.6    0.00     824    99999.0
 208   13:50   86.3    13    8.8   168     22.3   847.6    0.00     819    99999.0
 208   14:00   87.3    13    5.7   176     14.9   847.5    0.00     810    99999.0
 208   14:10   87.4    13    6.2   175     15.8   847.5    0.00     797    99999.0
 208   14:20   87.5    12    6.3   178     12.8   847.5    0.00     784    99999.0
 208   14:30   87.2    12    6.3   179     14.8   847.6    0.00     770    99999.0
 208   14:40   87.7    12    6.7   174     14.2   847.5    0.00     757    99999.0
 208   14:50   87.7    12    8.1   172     17.4   847.5    0.00     740    72.7
 208   15:00   87.6    12    7.3   171     15.3   847.4    0.00     718    99999.0
 208   15:10   87.4    12    7.5   172     17.5   847.3    0.00     700    99999.0
 208   15:20   88.0    12    7.4   176     16.6   847.1    0.00     677    99999.0
 208   15:30   87.9    11    8.2   169     17.5   847.1    0.00     659    99999.0
 208   15:40   88.1    11    8.8   170     19.4   847.0    0.00     638    73.0
 208   15:50   88.8    11    6.2   184     16.2   846.9    0.00     613    73.0
 208   16:00   88.1    11    8.4   171     16.3   846.9    0.00     582    99999.0
 208   16:10   88.5    11    7.3   174     13.7   846.9    0.00     568    99999.0
 208   16:20   88.3    11    7.2   182     15.9   846.8    0.00     540    99999.0
 208   16:30   88.5    11    6.6   182     14.2   846.8    0.00     509    99999.0
 208   16:40   88.0    11    8.1   178     18.9   846.8    0.00     481    99999.0
 208   16:50   88.0    11    6.5   183     14.6   846.8    0.00     458    99999.0
 208   17:00   88.0    10    5.0   190     11.7   846.8    0.00     210    99999.0
 208   17:10   87.6    11    6.0   182     11.5   846.7    0.00      58    99999.0
 208   17:20   87.3    11    4.5   190     10.7   846.6    0.00      60    99999.0
 208   17:30   86.8    12    7.7   173     17.6   846.5    0.00     100    73.5
 208   17:40   86.9    12    1.7   241     10.4   846.6    0.00      43    73.5
 208   17:50   87.3    10    4.6   152     18.9   846.5    0.00      41    73.6
 208   18:00   87.1    11    3.6    15     24.0   846.8    0.00      40    73.6
 208   18:10   85.7    13    3.3    19     11.0   846.9    0.00      36    73.7

Return to Milford, Utah graphs page.


Western Regional Climate Center,wrcc@dri.edu